Accueil
METAR-TAF:

METAR-TAF

Aéroports :

Oscoda-Wurtsmith Airport

Oscoda, Michigan, États-Unis

latitude: 44-27N, longitude: 083-22W, altitude: 193 m

Observation

Le bulletin a été fait il y a 15 minutes, à 09:35 UTC
Vent 5 kt de sud-est
Température 14°C
Humidité 100%
Pression 1008 hPa
Visibilité: 11.3 km
Nuages épars à une hauteur de 700 ft
Ciel couvert à une hauteur de 9000 ft
pluie faible

METAR: KOSC 210935Z AUTO 14005KT 7SM -RA SCT007 OVC090 14/14 A2977 RMK AO2 T01400140 P0001

Heure: 05:50 (09:50 UTC)


TAF: absent

Observations et prévisions météorologiques de plus de 4000 aéroports (messages METAR et TAF).

Les stations disponibles sont représentées par des disques jaunes et rouges sur la carte.

Passer la souris dessus pour voir le nom de la station.

Cliquer dessus pour voir les observations et prévisions météorologiques.

Pour changer de carte: cliquez sur les boutons verts avec une croix noire pour zoomer, sur le bouton vert avec un tiret pour effectuer un zoom arrière, ou sur les flèches vertes pour les cartes adjacentes.


METAR-TAF: